This is the latest recevied weather packets stored in our database for station/object DC0PP-10. If no packets are shown the sender has not sent any weather packets the latest 10 day(s).
| Time | Temp. | Humidity | Pressure | Rain* | Wind** | Luminosity | Snow |
|---|---|---|---|---|---|---|---|
| 1777402530 | 19.44° C | 45% | 1017 hPa | - | - | - | - |
| 1777401630 | 19.44° C | 44% | 1016.9 hPa | - | - | - | - |
| 1777400734 | 20° C | 45% | 1016.7 hPa | - | - | - | - |
| 1777399834 | 20.56° C | 42% | 1016.6 hPa | - | - | - | - |
| 1777398933 | 21.11° C | 38% | 1016.5 hPa | - | - | - | - |
| 1777398033 | 21.67° C | 33% | 1016.2 hPa | - | - | - | - |
| 1777397133 | 21.67° C | 33% | 1016.3 hPa | - | - | - | - |
| 1777396233 | 22.22° C | 35% | 1016.3 hPa | - | - | - | - |
| 1777395333 | 22.78° C | 33% | 1016.1 hPa | - | - | - | - |
| 1777394433 | 22.78° C | 31% | 1016 hPa | - | - | - | - |
| 1777393533 | 23.33° C | 31% | 1016 hPa | - | - | - | - |
| 1777392632 | 23.89° C | 28% | 1015.8 hPa | - | - | - | - |
| 1777391732 | 23.89° C | 30% | 1015.9 hPa | - | - | - | - |
| 1777390832 | 23.89° C | 29% | 1015.7 hPa | - | - | - | - |
| 1777389932 | 24.44° C | 28% | 1015.8 hPa | - | - | - | - |
| 1777389032 | 24.44° C | 28% | 1015.8 hPa | - | - | - | - |
| 1777388132 | 24.44° C | 28% | 1016 hPa | - | - | - | - |
| 1777387231 | 23.89° C | 28% | 1016 hPa | - | - | - | - |
| 1777386331 | 24.44° C | 28% | 1015.9 hPa | - | - | - | - |
| 1777385431 | 25.56° C | 28% | 1015.9 hPa | - | - | - | - |
| 1777384531 | 26.11° C | 28% | 1016 hPa | - | - | - | - |
| 1777383631 | 26.11° C | 28% | 1016.2 hPa | - | - | - | - |
| 1777382730 | 26.11° C | 26% | 1016.2 hPa | - | - | - | - |
| 1777381830 | 25.56° C | 26% | 1016.1 hPa | - | - | - | - |
| 1777380930 | 25.56° C | 26% | 1016.2 hPa | - | - | - | - |
* Rain since midnight (hover to see other rain measurements)
** Current wind speed in m/s (hover to see current wind gust speed)